Neunert, Illinois
Current Conditions -  °F | °C
As of 3:44 AM on Thursday 18 Dec 2014 (Local Time) from KMDH Reporting Station
Light Snow Light Snow  
Wind Chill: 26°   Ceiling: 3500
Heat Index: 31°   Visibility: 2.5mi
Dew Point: 27°   Wind: 5mph
Humidity: 85%   Direction: 40°NE
Pressure: 30.28"   Gusts: NA
Location:  37.7458°N, 89.5469°W
Report Text: KMDH 180944Z AUTO 04004KT 2 1/2SM -SN BR OVC035 M01/M03 A3028 RMK AO2 UPE10SNB20 P0001 T10061028
Loading
Personal Weather Stations






























Interactive Weather Map New forecast layout! Learn more

10-Day Weather Forecast

Advertisements
Track Severe Weather on mobile